sensor_id;sensor_type;location;lat;lon;timestamp;pressure;altitude;pressure_sealevel;temperature;humidity
5138;BME280;53959;53.626;11.410;2024-02-21T00:01:47;97053.56;;;10.90;100.00
5138;BME280;53959;53.626;11.410;2024-02-21T00:04:12;106453.06;;;11.73;100.00
5138;BME280;53959;53.626;11.410;2024-02-21T00:06:37;106117.47;;;11.76;100.00
5138;BME280;53959;53.626;11.410;2024-02-21T00:09:03;106141.34;;;11.89;100.00
5138;BME280;53959;53.626;11.410;2024-02-21T00:11:28;106787.75;;;11.70;100.00
5138;BME280;53959;53.626;11.410;2024-02-21T00:13:54;108508.00;;;11.77;100.00
5138;BME280;53959;53.626;11.410;2024-02-21T00:16:19;108158.22;;;11.73;100.00
5138;BME280;53959;53.626;11.410;2024-02-21T00:18:45;108475.19;;;11.59;100.00
5138;BME280;53959;53.626;11.410;2024-02-21T00:21:10;111305.25;;;12.12;100.00
5138;BME280;53959;53.626;11.410;2024-02-21T00:23:40;108498.63;;;11.72;100.00
5138;BME280;53959;53.626;11.410;2024-02-21T00:26:06;106418.13;;;11.54;100.00
5138;BME280;53959;53.626;11.410;2024-02-21T00:28:31;107816.03;;;11.72;100.00
5138;BME280;53959;53.626;11.410;2024-02-21T00:30:56;111668.25;;;12.23;100.00
5138;BME280;53959;53.626;11.410;2024-02-21T00:33:22;111316.75;;;12.18;100.00
5138;BME280;53959;53.626;11.410;2024-02-21T00:35:47;109566.28;;;11.96;100.00
5138;BME280;53959;53.626;11.410;2024-02-21T00:38:12;109926.84;;;12.06;100.00
5138;BME280;53959;53.626;11.410;2024-02-21T00:40:38;111305.25;;;12.12;100.00
5138;BME280;53959;53.626;11.410;2024-02-21T00:43:03;109919.25;;;12.02;100.00
5138;BME280;53959;53.626;11.410;2024-02-21T00:45:28;108549.22;;;12.00;100.00
5138;BME280;53959;53.626;11.410;2024-02-21T00:47:54;110284.66;;;12.14;100.00
5138;BME280;53959;53.626;11.410;2024-02-21T00:50:19;109591.81;;;12.09;100.00
5138;BME280;53959;53.626;11.410;2024-02-21T00:52:44;108903.91;;;12.07;100.00
5138;BME280;53959;53.626;11.410;2024-02-21T00:55:10;109279.44;;;12.25;100.00
5138;BME280;53959;53.626;11.410;2024-02-21T00:57:35;109635.31;;;12.33;100.00
5138;BME280;53959;53.626;11.410;2024-02-21T01:00:02;106161.53;;;12.01;100.00
5138;BME280;53959;53.626;11.410;2024-02-21T01:02:27;107217.84;;;12.19;100.00
5138;BME280;53959;53.626;11.410;2024-02-21T01:04:53;105863.25;;;12.25;100.00
5138;BME280;53959;53.626;11.410;2024-02-21T01:07:18;104813.06;;;12.10;100.00
5138;BME280;53959;53.626;11.410;2024-02-21T01:09:43;104990.75;;;11.18;100.00
5138;BME280;53959;53.626;11.410;2024-02-21T01:12:09;111582.53;;;11.78;100.00
5138;BME280;53959;53.626;11.410;2024-02-21T01:14:34;110074.44;;;11.02;100.00
5138;BME280;53959;53.626;11.410;2024-02-21T01:17:00;113790.25;;;10.82;100.00
5138;BME280;53959;53.626;11.410;2024-02-21T01:19:26;118791.38;;;11.91;100.00
5138;BME280;53959;53.626;11.410;2024-02-21T01:21:52;116737.34;;;11.91;100.00
5138;BME280;53959;53.626;11.410;2024-02-21T01:24:17;116605.56;;;11.24;100.00
5138;BME280;53959;53.626;11.410;2024-02-21T01:26:42;117929.56;;;11.02;100.00
5138;BME280;53959;53.626;11.410;2024-02-21T01:29:08;118230.66;;;10.82;100.00
5138;BME280;53959;53.626;11.410;2024-02-21T01:31:33;121015.03;;;11.06;100.00
5138;BME280;53959;53.626;11.410;2024-02-21T01:33:58;123440.88;;;11.20;100.00
5138;BME280;53959;53.626;11.410;2024-02-21T01:36:24;122711.59;;;10.99;100.00
5138;BME280;53959;53.626;11.410;2024-02-21T01:38:49;124426.75;;;11.00;100.00
5138;BME280;53959;53.626;11.410;2024-02-21T01:41:14;126874.13;;;11.23;100.00
5138;BME280;53959;53.626;11.410;2024-02-21T01:43:41;126877.41;;;11.25;100.00
5138;BME280;53959;53.626;11.410;2024-02-21T01:46:06;126430.06;;;10.76;100.00
5138;BME280;53959;53.626;11.410;2024-02-21T01:48:33;127782.88;;;10.67;100.00
5138;BME280;53959;53.626;11.410;2024-02-21T01:50:58;129185.94;;;10.82;100.00
5138;BME280;53959;53.626;11.410;2024-02-21T01:53:32;131294.44;;;11.05;100.00
5138;BME280;53959;53.626;11.410;2024-02-21T01:56:00;132409.53;;;11.43;100.00
5138;BME280;53959;53.626;11.410;2024-02-21T01:58:28;131991.13;;;11.10;100.00
5138;BME280;53959;53.626;11.410;2024-02-21T02:00:56;131191.72;;;10.59;100.00
5138;BME280;53959;53.626;11.410;2024-02-21T02:03:21;131861.72;;;10.52;100.00
5138;BME280;53959;53.626;11.410;2024-02-21T02:05:49;132945.63;;;10.76;100.00
5138;BME280;53959;53.626;11.410;2024-02-21T02:08:15;133225.75;;;10.48;100.00
5138;BME280;53959;53.626;11.410;2024-02-21T02:10:41;134597.09;;;10.48;100.00
5138;BME280;53959;53.626;11.410;2024-02-21T02:13:07;137121.56;;;11.00;100.00
5138;BME280;53959;53.626;11.410;2024-02-21T02:15:43;135864.88;;;11.52;100.00
5138;BME280;53959;53.626;11.410;2024-02-21T02:18:10;133962.63;;;10.70;100.00
5138;BME280;53959;53.626;11.410;2024-02-21T02:20:35;134554.25;;;10.29;100.00
5138;BME280;53959;53.626;11.410;2024-02-21T02:23:11;137520.84;;;11.24;100.00
5138;BME280;53959;53.626;11.410;2024-02-21T02:25:37;137971.41;;;11.70;100.00
5138;BME280;53959;53.626;11.410;2024-02-21T02:28:06;136562.06;;;11.56;100.00
5138;BME280;53959;53.626;11.410;2024-02-21T02:30:35;137293.72;;;11.75;100.00
5138;BME280;53959;53.626;11.410;2024-02-21T02:33:05;135285.84;;;10.49;100.00
5138;BME280;53959;53.626;11.410;2024-02-21T02:35:30;137385.00;;;10.65;100.00
5138;BME280;53959;53.626;11.410;2024-02-21T02:37:56;136607.44;;;10.26;100.00
5138;BME280;53959;53.626;11.410;2024-02-21T02:40:21;139041.00;;;10.39;100.00
5138;BME280;53959;53.626;11.410;2024-02-21T02:42:47;133555.06;;;10.42;100.00
5138;BME280;53959;53.626;11.410;2024-02-21T02:45:17;139815.91;;;10.76;100.00
5138;BME280;53959;53.626;11.410;2024-02-21T02:47:44;141268.00;;;11.08;100.00
5138;BME280;53959;53.626;11.410;2024-02-21T02:50:11;141626.78;;;11.14;100.00
5138;BME280;53959;53.626;11.410;2024-02-21T02:52:36;142050.31;;;11.48;100.00
5138;BME280;53959;53.626;11.410;2024-02-21T02:55:02;141642.63;;;11.21;100.00
5138;BME280;53959;53.626;11.410;2024-02-21T02:57:28;141557.44;;;10.85;100.00
5138;BME280;53959;53.626;11.410;2024-02-21T02:59:53;142753.97;;;11.54;100.00
5138;BME280;53959;53.626;11.410;2024-02-21T03:02:19;141938.09;;;11.01;100.00
5138;BME280;53959;53.626;11.410;2024-02-21T03:04:44;141528.28;;;10.73;100.00
5138;BME280;53959;53.626;11.410;2024-02-21T03:07:09;142279.88;;;11.00;100.00
5138;BME280;53959;53.626;11.410;2024-02-21T03:09:37;142673.09;;;11.20;100.00
5138;BME280;53959;53.626;11.410;2024-02-21T03:12:03;141849.09;;;10.63;100.00
5138;BME280;53959;53.626;11.410;2024-02-21T03:14:29;142561.63;;;10.74;100.00
5138;BME280;53959;53.626;11.410;2024-02-21T03:16:54;143691.56;;;11.14;100.00
5138;BME280;53959;53.626;11.410;2024-02-21T03:19:20;143698.97;;;11.17;100.00
5138;BME280;53959;53.626;11.410;2024-02-21T03:21:45;142926.59;;;10.82;100.00
5138;BME280;53959;53.626;11.410;2024-02-21T03:24:10;143260.97;;;10.78;100.00
5138;BME280;53959;53.626;11.410;2024-02-21T03:26:36;143674.28;;;11.07;100.00
5138;BME280;53959;53.626;11.410;2024-02-21T03:29:01;143698.97;;;11.17;100.00
5138;BME280;53959;53.626;11.410;2024-02-21T03:31:27;143280.66;;;10.86;100.00
5138;BME280;53959;53.626;11.410;2024-02-21T03:33:52;144031.03;;;11.12;100.00
5138;BME280;53959;53.626;11.410;2024-02-21T03:36:18;143652.03;;;10.98;100.00
5138;BME280;53959;53.626;11.410;2024-02-21T03:38:43;143661.91;;;11.02;100.00
5138;BME280;53959;53.626;11.410;2024-02-21T03:41:08;143691.56;;;11.14;100.00
5138;BME280;53959;53.626;11.410;2024-02-21T03:43:34;144060.72;;;11.24;100.00
5138;BME280;53959;53.626;11.410;2024-02-21T03:45:59;143659.47;;;11.01;100.00
5138;BME280;53959;53.626;11.410;2024-02-21T03:48:24;144021.16;;;11.08;100.00
5138;BME280;53959;53.626;11.410;2024-02-21T03:50:50;144026.13;;;11.10;100.00
5138;BME280;53959;53.626;11.410;2024-02-21T03:53:16;144042.16;;;11.16;100.00
5138;BME280;53959;53.626;11.410;2024-02-21T03:55:41;143599.03;;;10.76;100.00
5138;BME280;53959;53.626;11.410;2024-02-21T03:58:06;144036.00;;;11.14;100.00
5138;BME280;53959;53.626;11.410;2024-02-21T04:00:32;144017.44;;;11.06;100.00
5138;BME280;53959;53.626;11.410;2024-02-21T04:02:57;144039.69;;;11.15;100.00
5138;BME280;53959;53.626;11.410;2024-02-21T04:05:22;144057.03;;;11.23;100.00
5138;BME280;53959;53.626;11.410;2024-02-21T04:07:48;143285.59;;;10.88;100.00
5138;BME280;53959;53.626;11.410;2024-02-21T04:10:13;143687.84;;;11.12;100.00
5138;BME280;53959;53.626;11.410;2024-02-21T04:12:38;143717.50;;;11.25;100.00
5138;BME280;53959;53.626;11.410;2024-02-21T04:15:04;143365.63;;;11.22;100.00
5138;BME280;53959;53.626;11.410;2024-02-21T04:17:29;142962.22;;;10.97;100.00
5138;BME280;53959;53.626;11.410;2024-02-21T04:20:03;143018.69;;;11.21;100.00
5138;BME280;53959;53.626;11.410;2024-02-21T04:22:34;143064.16;;;11.39;100.00
5138;BME280;53959;53.626;11.410;2024-02-21T04:25:02;143433.31;;;11.50;100.00
5138;BME280;53959;53.626;11.410;2024-02-21T04:27:27;142696.41;;;11.30;100.00
5138;BME280;53959;53.626;11.410;2024-02-21T04:29:53;142284.75;;;11.02;100.00
5138;BME280;53959;53.626;11.410;2024-02-21T04:32:18;143054.31;;;11.35;100.00
5138;BME280;53959;53.626;11.410;2024-02-21T04:34:44;141916.19;;;10.91;100.00
5138;BME280;53959;53.626;11.410;2024-02-21T04:37:09;142627.75;;;11.01;100.00
5138;BME280;53959;53.626;11.410;2024-02-21T04:39:35;141944.22;;;11.03;100.00
5138;BME280;53959;53.626;11.410;2024-02-21T04:42:00;141246.19;;;10.99;100.00
5138;BME280;53959;53.626;11.410;2024-02-21T04:44:26;142299.44;;;11.08;100.00
5138;BME280;53959;53.626;11.410;2024-02-21T04:46:51;143031.00;;;11.26;100.00
5138;BME280;53959;53.626;11.410;2024-02-21T04:49:17;142263.97;;;10.93;100.00
5138;BME280;53959;53.626;11.410;2024-02-21T04:51:42;142974.53;;;11.02;100.00
5138;BME280;53959;53.626;11.410;2024-02-21T04:54:08;143021.19;;;11.22;100.00
5138;BME280;53959;53.626;11.410;2024-02-21T04:56:34;143042.06;;;11.30;100.00
5138;BME280;53959;53.626;11.410;2024-02-21T04:58:59;142654.72;;;11.12;100.00
5138;BME280;53959;53.626;11.410;2024-02-21T05:01:25;143001.53;;;11.13;100.00
5138;BME280;53959;53.626;11.410;2024-02-21T05:03:50;143077.69;;;11.45;100.00
5138;BME280;53959;53.626;11.410;2024-02-21T05:06:15;142304.34;;;11.10;100.00
5138;BME280;53959;53.626;11.410;2024-02-21T05:08:40;143379.13;;;11.27;100.00
5138;BME280;53959;53.626;11.410;2024-02-21T05:11:06;143032.22;;;11.26;100.00
5138;BME280;53959;53.626;11.410;2024-02-21T05:13:32;142620.41;;;10.98;100.00
5138;BME280;53959;53.626;11.410;2024-02-21T05:15:57;143384.06;;;11.29;100.00
5138;BME280;53959;53.626;11.410;2024-02-21T05:18:27;143428.41;;;11.48;100.00
5138;BME280;53959;53.626;11.410;2024-02-21T05:20:52;143509.69;;;11.81;100.00
5138;BME280;53959;53.626;11.410;2024-02-21T05:23:17;143140.34;;;11.71;100.00
5138;BME280;53959;53.626;11.410;2024-02-21T05:25:43;142769.94;;;11.60;100.00
5138;BME280;53959;53.626;11.410;2024-02-21T05:28:08;142766.28;;;11.59;100.00
5138;BME280;53959;53.626;11.410;2024-02-21T05:30:33;142822.66;;;11.82;100.00
5138;BME280;53959;53.626;11.410;2024-02-21T05:32:59;142844.75;;;11.91;100.00
5138;BME280;53959;53.626;11.410;2024-02-21T05:35:28;142030.78;;;11.39;100.00
5138;BME280;53959;53.626;11.410;2024-02-21T05:37:54;142394.81;;;11.48;100.00
5138;BME280;53959;53.626;11.410;2024-02-21T05:40:19;142744.19;;;11.50;100.00
5138;BME280;53959;53.626;11.410;2024-02-21T05:42:44;142338.53;;;11.24;100.00
5138;BME280;53959;53.626;11.410;2024-02-21T05:45:10;142700.06;;;11.31;100.00
5138;BME280;53959;53.626;11.410;2024-02-21T05:47:35;143092.44;;;11.51;100.00
5138;BME280;53959;53.626;11.410;2024-02-21T05:50:01;143477.66;;;11.68;100.00
5138;BME280;53959;53.626;11.410;2024-02-21T05:52:26;142651.06;;;11.11;100.00
5138;BME280;53959;53.626;11.410;2024-02-21T05:54:51;143742.13;;;11.35;100.00
5138;BME280;53959;53.626;11.410;2024-02-21T05:57:18;144154.78;;;11.63;100.00
5138;BME280;53959;53.626;11.410;2024-02-21T05:59:43;144710.50;;;12.50;100.00
5138;BME280;53959;53.626;11.410;2024-02-21T06:02:09;141388.19;;;11.59;100.00
5138;BME280;53959;53.626;11.410;2024-02-21T06:04:35;142391.09;;;11.46;100.00
5138;BME280;53959;53.626;11.410;2024-02-21T06:07:01;142373.97;;;11.39;100.00
5138;BME280;53959;53.626;11.410;2024-02-21T06:09:27;143440.72;;;11.53;100.00
5138;BME280;53959;53.626;11.410;2024-02-21T06:11:52;143074.03;;;11.43;100.00
5138;BME280;53959;53.626;11.410;2024-02-21T06:14:18;143050.66;;;11.34;100.00
5138;BME280;53959;53.626;11.410;2024-02-21T06:16:44;143096.13;;;11.53;100.00
5138;BME280;53959;53.626;11.410;2024-02-21T06:19:09;143457.97;;;11.60;100.00
5138;BME280;53959;53.626;11.410;2024-02-21T06:21:35;142687.81;;;11.26;100.00
5138;BME280;53959;53.626;11.410;2024-02-21T06:24:01;143921.22;;;12.09;100.00
5138;BME280;53959;53.626;11.410;2024-02-21T06:26:26;143157.56;;;11.78;100.00
5138;BME280;53959;53.626;11.410;2024-02-21T06:28:51;142762.56;;;11.57;100.00
5138;BME280;53959;53.626;11.410;2024-02-21T06:31:17;143049.44;;;11.33;100.00
5138;BME280;53959;53.626;11.410;2024-02-21T06:33:43;144229.06;;;11.94;100.00
5138;BME280;53959;53.626;11.410;2024-02-21T06:36:08;143441.94;;;11.53;100.00
5138;BME280;53959;53.626;11.410;2024-02-21T06:38:33;143781.66;;;11.51;100.00
5138;BME280;53959;53.626;11.410;2024-02-21T06:40:59;144636.06;;;12.19;100.00
5138;BME280;53959;53.626;11.410;2024-02-21T06:43:25;144232.75;;;11.95;100.00
5138;BME280;53959;53.626;11.410;2024-02-21T06:45:51;143541.75;;;11.95;100.00
5138;BME280;53959;53.626;11.410;2024-02-21T06:48:17;143071.53;;;11.42;100.00
5138;BME280;53959;53.626;11.410;2024-02-21T06:50:44;143924.91;;;12.10;100.00
5138;BME280;53959;53.626;11.410;2024-02-21T06:53:09;143918.75;;;12.08;100.00
5138;BME280;53959;53.626;11.410;2024-02-21T06:55:35;143524.50;;;11.87;100.00
5138;BME280;53959;53.626;11.410;2024-02-21T06:58:00;144001.50;;;12.42;100.00
5138;BME280;53959;53.626;11.410;2024-02-21T07:00:30;142421.69;;;11.59;100.00
5138;BME280;53959;53.626;11.410;2024-02-21T07:02:55;143591.06;;;12.15;100.00
5138;BME280;53959;53.626;11.410;2024-02-21T07:05:21;144018.81;;;12.49;100.00
5138;BME280;53959;53.626;11.410;2024-02-21T07:07:47;143641.56;;;12.36;100.00
5138;BME280;53959;53.626;11.410;2024-02-21T07:10:12;142477.94;;;11.82;100.00
5138;BME280;53959;53.626;11.410;2024-02-21T07:12:38;142865.63;;;12.00;100.00
5138;BME280;53959;53.626;11.410;2024-02-21T07:15:07;142096.69;;;11.67;100.00
5138;BME280;53959;53.626;11.410;2024-02-21T07:17:32;142459.59;;;11.75;100.00
5138;BME280;53959;53.626;11.410;2024-02-21T07:19:58;142830.06;;;11.85;100.00
5138;BME280;53959;53.626;11.410;2024-02-21T07:22:24;143220.28;;;12.04;100.00
5138;BME280;53959;53.626;11.410;2024-02-21T07:24:49;143248.56;;;12.16;100.00
5138;BME280;53959;53.626;11.410;2024-02-21T07:27:15;142874.19;;;12.04;100.00
5138;BME280;53959;53.626;11.410;2024-02-21T07:29:41;142506.13;;;11.94;100.00
5138;BME280;53959;53.626;11.410;2024-02-21T07:32:06;143287.88;;;12.32;100.00
5138;BME280;53959;53.626;11.410;2024-02-21T07:34:31;142458.38;;;11.74;100.00
5138;BME280;53959;53.626;11.410;2024-02-21T07:36:57;143295.25;;;12.35;100.00
5138;BME280;53959;53.626;11.410;2024-02-21T07:39:22;142089.34;;;11.64;100.00
5138;BME280;53959;53.626;11.410;2024-02-21T07:41:48;142460.81;;;11.75;100.00
5138;BME280;53959;53.626;11.410;2024-02-21T07:44:14;142826.34;;;11.84;100.00
5138;BME280;53959;53.626;11.410;2024-02-21T07:46:40;143194.47;;;11.94;100.00
5138;BME280;53959;53.626;11.410;2024-02-21T07:49:05;143189.53;;;11.91;100.00
5138;BME280;53959;53.626;11.410;2024-02-21T07:51:30;143647.72;;;12.38;100.00
5138;BME280;53959;53.626;11.410;2024-02-21T07:53:56;143216.56;;;12.03;100.00
5138;BME280;53959;53.626;11.410;2024-02-21T07:56:21;143206.75;;;11.99;100.00
5138;BME280;53959;53.626;11.410;2024-02-21T07:58:47;142558.72;;;12.16;100.00
5138;BME280;53959;53.626;11.410;2024-02-21T08:01:20;142493.91;;;11.89;100.00
5138;BME280;53959;53.626;11.410;2024-02-21T08:03:46;142901.19;;;12.15;100.00
5138;BME280;53959;53.626;11.410;2024-02-21T08:06:12;142964.94;;;12.42;100.00
5138;BME280;53959;53.626;11.410;2024-02-21T08:08:38;142580.72;;;12.25;100.00
5138;BME280;53959;53.626;11.410;2024-02-21T08:11:03;142578.28;;;12.24;100.00
5138;BME280;53959;53.626;11.410;2024-02-21T08:13:29;142676.19;;;12.65;100.00
5138;BME280;53959;53.626;11.410;2024-02-21T08:15:54;141884.88;;;12.23;100.00
5138;BME280;53959;53.626;11.410;2024-02-21T08:18:20;141883.63;;;12.22;100.00
5138;BME280;53959;53.626;11.410;2024-02-21T08:20:45;141516.94;;;12.13;100.00
5138;BME280;53959;53.626;11.410;2024-02-21T08:23:10;141906.78;;;12.32;100.00
5138;BME280;53959;53.626;11.410;2024-02-21T08:25:36;141200.06;;;12.25;100.00
5138;BME280;53959;53.626;11.410;2024-02-21T08:28:01;142000.53;;;12.71;100.00
5138;BME280;53959;53.626;11.410;2024-02-21T08:30:27;140889.16;;;12.39;100.00
5138;BME280;53959;53.626;11.410;2024-02-21T08:32:53;140537.06;;;12.36;100.00
5138;BME280;53959;53.626;11.410;2024-02-21T08:35:21;141315.22;;;12.73;100.00
5138;BME280;53959;53.626;11.410;2024-02-21T08:37:49;140197.13;;;12.38;100.00
5138;BME280;53959;53.626;11.410;2024-02-21T08:40:15;139836.75;;;12.31;100.00
5138;BME280;53959;53.626;11.410;2024-02-21T08:42:43;139849.94;;;12.37;100.00
5138;BME280;53959;53.626;11.410;2024-02-21T08:45:09;140235.63;;;12.54;100.00
5138;BME280;53959;53.626;11.410;2024-02-21T08:47:34;140278.94;;;12.73;100.00
5138;BME280;53959;53.626;11.410;2024-02-21T08:50:03;140648.06;;;12.83;100.00
5138;BME280;53959;53.626;11.410;2024-02-21T08:52:28;139577.13;;;12.68;100.00
5138;BME280;53959;53.626;11.410;2024-02-21T08:54:54;139542.38;;;12.53;100.00
5138;BME280;53959;53.626;11.410;2024-02-21T08:57:19;139976.03;;;12.91;100.00
5138;BME280;53959;53.626;11.410;2024-02-21T08:59:45;138390.47;;;12.02;100.00
5138;BME280;53959;53.626;11.410;2024-02-21T09:02:12;139470.50;;;12.22;100.00
5138;BME280;53959;53.626;11.410;2024-02-21T09:04:38;140642.03;;;12.80;100.00
5138;BME280;53959;53.626;11.410;2024-02-21T09:07:03;139124.72;;;12.22;100.00
5138;BME280;53959;53.626;11.410;2024-02-21T09:09:29;139136.69;;;12.27;100.00
5138;BME280;53959;53.626;11.410;2024-02-21T09:11:54;139136.69;;;12.27;100.00
5138;BME280;53959;53.626;11.410;2024-02-21T09:14:19;133615.97;;;10.69;100.00
5138;BME280;53959;53.626;11.410;2024-02-21T09:16:45;135257.94;;;10.36;100.00
5138;BME280;53959;53.626;11.410;2024-02-21T09:19:10;138087.59;;;10.72;100.00
5138;BME280;53959;53.626;11.410;2024-02-21T09:21:39;139044.56;;;10.40;100.00
5138;BME280;53959;53.626;11.410;2024-02-21T09:24:05;140811.31;;;10.61;100.00
5138;BME280;53959;53.626;11.410;2024-02-21T09:26:31;141795.47;;;10.41;100.00
5138;BME280;53959;53.626;11.410;2024-02-21T09:28:56;142132.00;;;10.38;100.00
5138;BME280;53959;53.626;11.410;2024-02-21T09:31:22;143555.84;;;10.58;100.00
5138;BME280;53959;53.626;11.410;2024-02-21T09:33:47;143182.22;;;10.45;100.00
5138;BME280;53959;53.626;11.410;2024-02-21T09:36:12;144293.69;;;10.78;100.00
5138;BME280;53959;53.626;11.410;2024-02-21T09:38:39;145880.22;;;13.04;100.00
5138;BME280;53959;53.626;11.410;2024-02-21T09:41:16;145530.81;;;13.03;100.00
5138;BME280;53959;53.626;11.410;2024-02-21T09:43:43;145210.09;;;13.13;100.00
5138;BME280;53959;53.626;11.410;2024-02-21T09:46:16;144818.50;;;12.94;100.00
5138;BME280;53959;53.626;11.410;2024-02-21T09:49:02;143703.19;;;12.61;100.00
5138;BME280;53959;53.626;11.410;2024-02-21T09:51:30;144131.22;;;12.96;100.00
5138;BME280;53959;53.626;11.410;2024-02-21T09:53:58;143785.78;;;12.96;100.00
5138;BME280;53959;53.626;11.410;2024-02-21T09:56:24;143099.91;;;12.98;100.00
5138;BME280;53959;53.626;11.410;2024-02-21T09:58:50;143113.38;;;13.03;100.00
5138;BME280;53959;53.626;11.410;2024-02-21T10:01:15;143631.09;;;13.75;100.00
5138;BME280;53959;53.626;11.410;2024-02-21T10:03:41;143298.78;;;13.80;100.00
5138;BME280;53959;53.626;11.410;2024-02-21T10:06:08;141018.50;;;12.94;100.00
5138;BME280;53959;53.626;11.410;2024-02-21T10:08:34;140312.66;;;12.87;100.00
5138;BME280;53959;53.626;11.410;2024-02-21T10:10:59;140287.38;;;12.76;100.00
5138;BME280;53959;53.626;11.410;2024-02-21T10:13:27;140699.91;;;13.05;100.00
5138;BME280;53959;53.626;11.410;2024-02-21T10:16:06;139925.59;;;12.69;100.00
5138;BME280;53959;53.626;11.410;2024-02-21T10:18:32;137991.53;;;11.79;100.00
5138;BME280;53959;53.626;11.410;2024-02-21T10:21:05;136786.09;;;11.04;100.00
5138;BME280;53959;53.626;11.410;2024-02-21T10:23:44;138809.53;;;10.87;100.00
5138;BME280;53959;53.626;11.410;2024-02-21T10:26:10;139814.72;;;10.76;100.00
5138;BME280;53959;53.626;11.410;2024-02-21T10:28:37;143825.19;;;13.12;100.00
5138;BME280;53959;53.626;11.410;2024-02-21T10:31:07;141886.09;;;12.23;100.00
5138;BME280;53959;53.626;11.410;2024-02-21T10:33:32;140990.47;;;11.36;100.00
5138;BME280;53959;53.626;11.410;2024-02-21T10:36:06;144113.91;;;12.88;100.00
5138;BME280;53959;53.626;11.410;2024-02-21T10:38:33;143410.84;;;12.83;100.00
5138;BME280;53959;53.626;11.410;2024-02-21T10:40:59;142685.97;;;12.69;100.00
5138;BME280;53959;53.626;11.410;2024-02-21T10:43:30;143131.78;;;13.11;100.00
5138;BME280;53959;53.626;11.410;2024-02-21T10:46:00;142805.91;;;13.19;100.00
5138;BME280;53959;53.626;11.410;2024-02-21T10:48:33;142124.84;;;13.23;100.00
5138;BME280;53959;53.626;11.410;2024-02-21T10:51:08;141856.03;;;13.55;100.00
5138;BME280;53959;53.626;11.410;2024-02-21T10:56:32;140853.28;;;13.70;100.00
5138;BME280;53959;53.626;11.410;2024-02-21T10:59:03;139786.78;;;13.57;100.00
5138;BME280;53959;53.626;11.410;2024-02-21T11:01:29;139874.28;;;13.94;100.00
5138;BME280;53959;53.626;11.410;2024-02-21T11:04:05;135895.22;;;11.65;100.00
5138;BME280;53959;53.626;11.410;2024-02-21T11:06:31;137609.50;;;11.62;100.00
5138;BME280;53959;53.626;11.410;2024-02-21T11:11:27;141218.25;;;12.32;100.00
5138;BME280;53959;53.626;11.410;2024-02-21T11:13:52;140617.88;;;12.70;100.00
5138;BME280;53959;53.626;11.410;2024-02-21T11:16:22;140738.56;;;13.21;100.00
5138;BME280;53959;53.626;11.410;2024-02-21T11:18:48;141529.88;;;13.64;100.00
5138;BME280;53959;53.626;11.410;2024-02-21T11:21:14;138603.25;;;12.94;100.00
5138;BME280;53959;53.626;11.410;2024-02-21T11:23:39;140209.09;;;13.90;100.00
5138;BME280;53959;53.626;11.410;2024-02-21T11:26:08;139139.00;;;13.75;100.00
5138;BME280;53959;53.626;11.410;2024-02-21T11:28:34;136973.09;;;13.34;100.00
5138;BME280;53959;53.626;11.410;2024-02-21T11:31:08;136181.47;;;12.90;100.00
5138;BME280;53959;53.626;11.410;2024-02-21T11:33:34;136569.50;;;13.09;100.00
5138;BME280;53959;53.626;11.410;2024-02-21T11:36:00;135889.28;;;13.13;100.00
5138;BME280;53959;53.626;11.410;2024-02-21T11:38:26;134427.38;;;12.76;100.00
5138;BME280;53959;53.626;11.410;2024-02-21T11:40:51;134752.16;;;12.68;100.00
5138;BME280;53959;53.626;11.410;2024-02-21T11:43:16;134966.69;;;12.10;100.00
5138;BME280;53959;53.626;11.410;2024-02-21T11:45:42;135544.28;;;11.62;100.00
5138;BME280;53959;53.626;11.410;2024-02-21T11:48:07;135840.34;;;11.41;100.00
5138;BME280;53959;53.626;11.410;2024-02-21T11:50:34;137141.59;;;11.09;100.00
5138;BME280;53959;53.626;11.410;2024-02-21T11:53:01;137793.69;;;10.93;100.00
5138;BME280;53959;53.626;11.410;2024-02-21T11:55:26;139182.09;;;10.99;100.00
5138;BME280;53959;53.626;11.410;2024-02-21T11:57:51;140978.34;;;11.31;100.00
5138;BME280;53959;53.626;11.410;2024-02-21T12:00:18;140194.72;;;10.91;100.00
5138;BME280;53959;53.626;11.410;2024-02-21T12:02:47;141227.97;;;10.91;100.00
5138;BME280;53959;53.626;11.410;2024-02-21T12:05:13;141167.31;;;10.66;100.00
5138;BME280;53959;53.626;11.410;2024-02-21T12:07:40;142250.56;;;10.87;100.00
5138;BME280;53959;53.626;11.410;2024-02-21T12:10:09;143002.78;;;11.14;100.00
5138;BME280;53959;53.626;11.410;2024-02-21T12:12:36;143281.88;;;10.87;100.00
5138;BME280;53959;53.626;11.410;2024-02-21T12:15:03;144048.38;;;11.19;100.00
5138;BME280;53959;53.626;11.410;2024-02-21T12:17:30;143666.88;;;11.04;100.00
5138;BME280;53959;53.626;11.410;2024-02-21T12:19:56;144064.44;;;11.26;100.00
5138;BME280;53959;53.626;11.410;2024-02-21T12:22:22;143645.91;;;10.95;100.00
5138;BME280;53959;53.626;11.410;2024-02-21T12:24:47;144016.22;;;11.06;100.00
5138;BME280;53959;53.626;11.410;2024-02-21T12:27:13;143959.28;;;10.82;100.00
5138;BME280;53959;53.626;11.410;2024-02-21T12:29:39;144829.38;;;11.57;100.00
5138;BME280;53959;53.626;11.410;2024-02-21T12:32:04;144477.19;;;11.54;100.00
5138;BME280;53959;53.626;11.410;2024-02-21T12:34:30;144071.88;;;11.29;100.00
5138;BME280;53959;53.626;11.410;2024-02-21T12:36:58;144059.47;;;11.24;100.00
5138;BME280;53959;53.626;11.410;2024-02-21T12:39:24;143671.81;;;11.06;100.00
5138;BME280;53959;53.626;11.410;2024-02-21T12:41:49;144963.75;;;12.12;100.00